KONT/ONT METAR and TAF weather

Enter ICAO airport designator
Station Type Date Time Source
KONT METAR 2021/07/30 22:53 UTC NOAA

KONT 302253Z 25010KT 10SM FEW110 FEW180 BKN250 37/12 A2988 RMK AO2 SLP096 CB DSNT NE-SE T03670117


Station Type Date Time Source
KONT Decoded METAR 2021/07/30 22:53 UTC NOAA

ONTARIO INTERNATIONAL AIRPORT, CA, United States (KONT) 34-03N 117-35W 275M
Jul 30, 2021 - 06:53 PM EDT / 2021.07.30 2253 UTC
Wind: from the WSW (250 degrees) at 12 MPH (10 KT):0
Visibility: 10 mile(s):0
Sky conditions: mostly cloudy
Weather: Cumulonimbus clouds observed
Temperature: 98.1 F (36.7 C)
Heat index: 95.7 F (35.4 C):1
Dew Point: 53.1 F (11.7 C)
Relative Humidity: 22%
Pressure (altimeter): 29.88 in. Hg (1011 hPa)
ob: KONT 302253Z 25010KT 10SM FEW110 FEW180 BKN250 37/12 A2988 RMK AO2 SLP096 CB DSNT NE-SE T03670117
cycle: 23

Station Type Date Time Source
KONT TAF 2021/07/30 18:30 UTC NOAA

TAF KONT 301729Z 3018/3124 VRB04KT P6SM SCT150
FM302000 26012G20KT P6SM SCT090
FM310400 VRB04KT P6SM SCT150
FM312000 26013G21KT P6SM SCT090

Example: see airport list